sensor_id;sensor_type;location;lat;lon;timestamp;pressure;altitude;pressure_sealevel;temperature;humidity
22389;BME280;11362;48.102;11.620;2023-02-23T00:01:36;94839.56;;;23.87;34.68
22389;BME280;11362;48.102;11.620;2023-02-23T00:04:02;94835.56;;;23.88;34.83
22389;BME280;11362;48.102;11.620;2023-02-23T00:06:30;94834.03;;;23.87;35.02
22389;BME280;11362;48.102;11.620;2023-02-23T00:08:56;94829.22;;;23.88;34.96
22389;BME280;11362;48.102;11.620;2023-02-23T00:11:21;94825.69;;;23.87;34.91
22389;BME280;11362;48.102;11.620;2023-02-23T00:13:48;94832.47;;;23.86;35.14
22389;BME280;11362;48.102;11.620;2023-02-23T00:16:19;94834.03;;;23.87;34.97
22389;BME280;11362;48.102;11.620;2023-02-23T00:18:56;94826.91;;;23.86;35.01
22389;BME280;11362;48.102;11.620;2023-02-23T00:21:28;94838.00;;;23.86;35.01
22389;BME280;11362;48.102;11.620;2023-02-23T00:23:59;94837.22;;;23.86;35.17
22389;BME280;11362;48.102;11.620;2023-02-23T00:26:27;94838.41;;;23.85;35.15
22389;BME280;11362;48.102;11.620;2023-02-23T00:28:52;94842.75;;;23.86;35.08
22389;BME280;11362;48.102;11.620;2023-02-23T00:31:19;94841.97;;;23.85;35.21
22389;BME280;11362;48.102;11.620;2023-02-23T00:33:45;94840.78;;;23.86;35.19
22389;BME280;11362;48.102;11.620;2023-02-23T00:36:12;94842.75;;;23.86;35.22
22389;BME280;11362;48.102;11.620;2023-02-23T00:38:39;94841.97;;;23.85;35.24
22389;BME280;11362;48.102;11.620;2023-02-23T00:41:07;94846.72;;;23.85;35.34
22389;BME280;11362;48.102;11.620;2023-02-23T00:43:37;94840.41;;;23.84;35.28
22389;BME280;11362;48.102;11.620;2023-02-23T00:46:04;94847.50;;;23.85;35.34
22389;BME280;11362;48.102;11.620;2023-02-23T00:48:34;94844.75;;;23.85;35.33
22389;BME280;11362;48.102;11.620;2023-02-23T00:51:04;94841.16;;;23.85;35.23
22389;BME280;11362;48.102;11.620;2023-02-23T00:53:30;94845.94;;;23.84;35.34
22389;BME280;11362;48.102;11.620;2023-02-23T00:55:56;94840.41;;;23.84;35.39
22389;BME280;11362;48.102;11.620;2023-02-23T00:58:25;94838.81;;;23.83;35.38
22389;BME280;11362;48.102;11.620;2023-02-23T01:00:51;94837.63;;;23.84;35.30
22389;BME280;11362;48.102;11.620;2023-02-23T01:03:16;94834.06;;;23.84;35.20
22389;BME280;11362;48.102;11.620;2023-02-23T01:05:42;94841.16;;;23.85;35.56
22389;BME280;11362;48.102;11.620;2023-02-23T01:08:08;94838.06;;;23.83;35.67
22389;BME280;11362;48.102;11.620;2023-02-23T01:10:38;94834.06;;;23.84;35.69
22389;BME280;11362;48.102;11.620;2023-02-23T01:13:04;94832.50;;;23.83;35.54
22389;BME280;11362;48.102;11.620;2023-02-23T01:15:29;94837.25;;;23.82;35.53
22389;BME280;11362;48.102;11.620;2023-02-23T01:17:54;94840.03;;;23.82;35.60
22389;BME280;11362;48.102;11.620;2023-02-23T01:20:20;94845.56;;;23.82;35.62
22389;BME280;11362;48.102;11.620;2023-02-23T01:22:48;94845.56;;;23.82;35.41
22389;BME280;11362;48.102;11.620;2023-02-23T01:25:15;94847.59;;;23.82;35.58
22389;BME280;11362;48.102;11.620;2023-02-23T01:27:41;94846.03;;;23.81;35.61
22389;BME280;11362;48.102;11.620;2023-02-23T01:30:07;94843.69;;;23.79;35.72
22389;BME280;11362;48.102;11.620;2023-02-23T01:32:34;94851.56;;;23.81;35.71
22389;BME280;11362;48.102;11.620;2023-02-23T01:34:59;94842.81;;;23.82;35.81
22389;BME280;11362;48.102;11.620;2023-02-23T01:37:25;94842.03;;;23.82;36.11
22389;BME280;11362;48.102;11.620;2023-02-23T01:39:50;94815.88;;;23.83;36.41
22389;BME280;11362;48.102;11.620;2023-02-23T01:42:15;94809.53;;;23.82;36.51
22389;BME280;11362;48.102;11.620;2023-02-23T01:47:06;94827.72;;;23.83;36.04
22389;BME280;11362;48.102;11.620;2023-02-23T01:49:31;94833.28;;;23.83;35.91
22389;BME280;11362;48.102;11.620;2023-02-23T01:52:04;94827.72;;;23.83;35.83
22389;BME280;11362;48.102;11.620;2023-02-23T01:54:34;94829.72;;;23.83;35.93
22389;BME280;11362;48.102;11.620;2023-02-23T01:57:02;94838.06;;;23.83;35.82
22389;BME280;11362;48.102;11.620;2023-02-23T01:59:33;94831.72;;;23.82;35.85
22389;BME280;11362;48.102;11.620;2023-02-23T02:02:00;94831.72;;;23.82;35.86
22389;BME280;11362;48.102;11.620;2023-02-23T02:04:27;94833.72;;;23.82;35.88
22389;BME280;11362;48.102;11.620;2023-02-23T02:06:53;94835.69;;;23.81;35.88
22389;BME280;11362;48.102;11.620;2023-02-23T02:09:21;94829.38;;;23.81;35.77
22389;BME280;11362;48.102;11.620;2023-02-23T02:11:47;94826.63;;;23.81;35.84
22389;BME280;11362;48.102;11.620;2023-02-23T02:14:16;94828.94;;;23.82;35.74
22389;BME280;11362;48.102;11.620;2023-02-23T02:22:34;94813.50;;;23.81;35.70
22389;BME280;11362;48.102;11.620;2023-02-23T02:28:28;94811.53;;;23.82;35.85
22389;BME280;11362;48.102;11.620;2023-02-23T02:36:46;94807.97;;;23.81;35.73
22389;BME280;11362;48.102;11.620;2023-02-23T02:47:23;94812.75;;;23.81;35.77
22389;BME280;11362;48.102;11.620;2023-02-23T02:50:37;94811.94;;;23.80;35.69
22389;BME280;11362;48.102;11.620;2023-02-23T02:52:50;94811.59;;;23.78;35.65
22389;BME280;11362;48.102;11.620;2023-02-23T02:55:22;94817.56;;;23.77;35.68
22389;BME280;11362;48.102;11.620;2023-02-23T02:57:50;94810.06;;;23.77;35.85
22389;BME280;11362;48.102;11.620;2023-02-23T03:00:27;94816.38;;;23.78;35.82
22389;BME280;11362;48.102;11.620;2023-02-23T03:02:53;94807.28;;;23.77;35.69
22389;BME280;11362;48.102;11.620;2023-02-23T03:05:21;94807.28;;;23.77;35.74
22389;BME280;11362;48.102;11.620;2023-02-23T03:08:16;94801.72;;;23.77;35.78
22389;BME280;11362;48.102;11.620;2023-02-23T03:10:59;94800.94;;;23.77;35.79
22389;BME280;11362;48.102;11.620;2023-02-23T03:13:54;94800.94;;;23.77;35.69
22389;BME280;11362;48.102;11.620;2023-02-23T03:16:37;94803.28;;;23.78;35.63
22389;BME280;11362;48.102;11.620;2023-02-23T03:19:22;94805.69;;;23.76;35.69
22389;BME280;11362;48.102;11.620;2023-02-23T03:21:59;94804.13;;;23.75;35.61
22389;BME280;11362;48.102;11.620;2023-02-23T03:24:38;94814.00;;;23.76;35.81
22389;BME280;11362;48.102;11.620;2023-02-23T03:30:27;94816.44;;;23.74;35.83
22389;BME280;11362;48.102;11.620;2023-02-23T03:33:01;94808.53;;;23.73;35.88
22389;BME280;11362;48.102;11.620;2023-02-23T03:35:35;94810.53;;;23.72;35.76
22389;BME280;11362;48.102;11.620;2023-02-23T03:38:09;94816.84;;;23.73;35.85
22389;BME280;11362;48.102;11.620;2023-02-23T03:40:39;94818.44;;;23.74;35.86
22389;BME280;11362;48.102;11.620;2023-02-23T03:43:10;94819.63;;;23.73;36.01
22389;BME280;11362;48.102;11.620;2023-02-23T03:45:37;94829.09;;;23.75;35.92
22389;BME280;11362;48.102;11.620;2023-02-23T03:48:05;94819.22;;;23.74;35.83
22389;BME280;11362;48.102;11.620;2023-02-23T03:50:37;94824.75;;;23.74;35.84
22389;BME280;11362;48.102;11.620;2023-02-23T03:53:06;94812.91;;;23.74;35.74
22389;BME280;11362;48.102;11.620;2023-02-23T03:55:37;94823.19;;;23.73;35.85
22389;BME280;11362;48.102;11.620;2023-02-23T03:58:08;94824.75;;;23.74;35.75
22389;BME280;11362;48.102;11.620;2023-02-23T04:00:39;94824.75;;;23.74;35.82
22389;BME280;11362;48.102;11.620;2023-02-23T04:03:08;94835.84;;;23.74;35.97
22389;BME280;11362;48.102;11.620;2023-02-23T04:05:37;94832.66;;;23.76;35.79
22389;BME280;11362;48.102;11.620;2023-02-23T04:08:06;94831.50;;;23.73;35.72
22389;BME280;11362;48.102;11.620;2023-02-23T04:10:34;94835.84;;;23.74;35.96
22389;BME280;11362;48.102;11.620;2023-02-23T04:13:13;94830.31;;;23.74;35.88
22389;BME280;11362;48.102;11.620;2023-02-23T04:16:04;94833.06;;;23.74;35.75
22389;BME280;11362;48.102;11.620;2023-02-23T04:18:36;94831.88;;;23.75;35.83
22389;BME280;11362;48.102;11.620;2023-02-23T04:21:02;94824.75;;;23.74;35.80
22389;BME280;11362;48.102;11.620;2023-02-23T04:23:28;94830.31;;;23.74;35.82
22389;BME280;11362;48.102;11.620;2023-02-23T04:25:53;94829.53;;;23.74;35.91
22389;BME280;11362;48.102;11.620;2023-02-23T04:28:20;94828.75;;;23.73;36.03
22389;BME280;11362;48.102;11.620;2023-02-23T04:30:46;94838.63;;;23.74;36.02
22389;BME280;11362;48.102;11.620;2023-02-23T04:33:12;94837.84;;;23.74;36.07
22389;BME280;11362;48.102;11.620;2023-02-23T04:35:38;94830.31;;;23.74;35.87
22389;BME280;11362;48.102;11.620;2023-02-23T04:38:03;94824.00;;;23.74;35.96
22389;BME280;11362;48.102;11.620;2023-02-23T04:40:29;94835.50;;;23.72;36.01
22389;BME280;11362;48.102;11.620;2023-02-23T04:42:54;94828.75;;;23.73;35.81
22389;BME280;11362;48.102;11.620;2023-02-23T04:45:20;94837.06;;;23.73;35.97
22389;BME280;11362;48.102;11.620;2023-02-23T04:47:45;94834.28;;;23.73;35.80
22389;BME280;11362;48.102;11.620;2023-02-23T04:50:11;94827.19;;;23.72;35.99
22389;BME280;11362;48.102;11.620;2023-02-23T04:52:37;94837.06;;;23.73;35.96
22389;BME280;11362;48.102;11.620;2023-02-23T04:55:06;94839.84;;;23.73;35.98
22389;BME280;11362;48.102;11.620;2023-02-23T04:57:32;94846.94;;;23.74;36.08
22389;BME280;11362;48.102;11.620;2023-02-23T04:59:58;94843.81;;;23.72;35.92
22389;BME280;11362;48.102;11.620;2023-02-23T05:02:23;94848.94;;;23.74;35.90
22389;BME280;11362;48.102;11.620;2023-02-23T05:04:48;94839.03;;;23.73;36.03
22389;BME280;11362;48.102;11.620;2023-02-23T05:07:13;94850.94;;;23.73;35.82
22389;BME280;11362;48.102;11.620;2023-02-23T05:09:39;94845.38;;;23.73;36.01
22389;BME280;11362;48.102;11.620;2023-02-23T05:12:04;94841.41;;;23.74;35.87
22389;BME280;11362;48.102;11.620;2023-02-23T05:14:29;94842.94;;;23.75;35.88
22389;BME280;11362;48.102;11.620;2023-02-23T05:16:55;94845.38;;;23.73;35.94
22389;BME280;11362;48.102;11.620;2023-02-23T05:19:20;94838.63;;;23.74;35.83
22389;BME280;11362;48.102;11.620;2023-02-23T05:21:45;94845.38;;;23.73;35.88
22389;BME280;11362;48.102;11.620;2023-02-23T05:24:11;94829.53;;;23.74;35.80
22389;BME280;11362;48.102;11.620;2023-02-23T05:26:36;94834.28;;;23.73;35.92
22389;BME280;11362;48.102;11.620;2023-02-23T05:29:01;94837.06;;;23.73;35.91
22389;BME280;11362;48.102;11.620;2023-02-23T05:31:27;94835.84;;;23.74;35.92
22389;BME280;11362;48.102;11.620;2023-02-23T05:33:52;94837.84;;;23.74;35.77
22389;BME280;11362;48.102;11.620;2023-02-23T05:36:19;94840.63;;;23.74;35.83
22389;BME280;11362;48.102;11.620;2023-02-23T05:38:45;94837.84;;;23.74;35.82
22389;BME280;11362;48.102;11.620;2023-02-23T05:41:13;94846.19;;;23.74;35.80
22389;BME280;11362;48.102;11.620;2023-02-23T05:43:39;94850.13;;;23.73;35.90
22389;BME280;11362;48.102;11.620;2023-02-23T05:46:14;94845.38;;;23.73;35.83
22389;BME280;11362;48.102;11.620;2023-02-23T05:48:41;94839.03;;;23.73;35.77
22389;BME280;11362;48.102;11.620;2023-02-23T05:51:09;94846.19;;;23.74;35.81
22389;BME280;11362;48.102;11.620;2023-02-23T05:53:35;94845.38;;;23.73;35.82
22389;BME280;11362;48.102;11.620;2023-02-23T05:56:02;94850.94;;;23.73;35.84
22389;BME280;11362;48.102;11.620;2023-02-23T05:58:28;94850.94;;;23.73;35.70
22389;BME280;11362;48.102;11.620;2023-02-23T06:00:53;94852.50;;;23.74;35.79
22389;BME280;11362;48.102;11.620;2023-02-23T06:03:19;94852.50;;;23.74;35.89
22389;BME280;11362;48.102;11.620;2023-02-23T06:05:55;94860.03;;;23.74;36.52
22389;BME280;11362;48.102;11.620;2023-02-23T06:08:22;94847.66;;;23.78;37.30
22389;BME280;11362;48.102;11.620;2023-02-23T06:10:48;94853.91;;;23.82;37.48
22389;BME280;11362;48.102;11.620;2023-02-23T06:13:13;94854.28;;;23.84;37.28
22389;BME280;11362;48.102;11.620;2023-02-23T06:15:39;94857.41;;;23.86;37.59
22389;BME280;11362;48.102;11.620;2023-02-23T06:18:05;94860.53;;;23.88;37.79
22389;BME280;11362;48.102;11.620;2023-02-23T06:20:31;94862.09;;;23.89;37.63
22389;BME280;11362;48.102;11.620;2023-02-23T06:22:56;94858.50;;;23.92;38.25
22389;BME280;11362;48.102;11.620;2023-02-23T06:25:22;94860.38;;;23.95;38.46
22389;BME280;11362;48.102;11.620;2023-02-23T06:27:47;94865.94;;;23.95;38.44
22389;BME280;11362;48.102;11.620;2023-02-23T06:30:13;94863.88;;;23.99;38.67
22389;BME280;11362;48.102;11.620;2023-02-23T06:32:38;94872.56;;;24.01;38.75
22389;BME280;11362;48.102;11.620;2023-02-23T06:35:04;94871.00;;;24.00;38.45
22389;BME280;11362;48.102;11.620;2023-02-23T06:37:30;94873.84;;;23.97;38.34
22389;BME280;11362;48.102;11.620;2023-02-23T06:39:56;94878.25;;;23.94;38.38
22389;BME280;11362;48.102;11.620;2023-02-23T06:42:21;94885.00;;;23.93;38.06
22389;BME280;11362;48.102;11.620;2023-02-23T06:44:47;94885.00;;;23.93;37.92
22389;BME280;11362;48.102;11.620;2023-02-23T06:47:12;94890.19;;;23.91;37.83
22389;BME280;11362;48.102;11.620;2023-02-23T06:49:37;94889.00;;;23.92;37.75
22389;BME280;11362;48.102;11.620;2023-02-23T06:52:03;94883.06;;;23.90;37.73
22389;BME280;11362;48.102;11.620;2023-02-23T06:54:28;94892.63;;;23.89;37.64
22389;BME280;11362;48.102;11.620;2023-02-23T06:56:53;94886.72;;;23.87;37.65
22389;BME280;11362;48.102;11.620;2023-02-23T06:59:19;94893.47;;;23.86;37.49
22389;BME280;11362;48.102;11.620;2023-02-23T07:01:44;94899.03;;;23.86;37.38
22389;BME280;11362;48.102;11.620;2023-02-23T07:04:10;94894.25;;;23.87;37.39
22389;BME280;11362;48.102;11.620;2023-02-23T07:06:36;94905.34;;;23.87;37.38
22389;BME280;11362;48.102;11.620;2023-02-23T07:09:01;94903.38;;;23.87;37.36
22389;BME280;11362;48.102;11.620;2023-02-23T07:11:26;94906.13;;;23.87;37.25
22389;BME280;11362;48.102;11.620;2023-02-23T07:13:52;94899.03;;;23.86;37.15
22389;BME280;11362;48.102;11.620;2023-02-23T07:16:17;94911.69;;;23.87;37.10
22389;BME280;11362;48.102;11.620;2023-02-23T07:18:42;94905.34;;;23.87;37.14
22389;BME280;11362;48.102;11.620;2023-02-23T07:21:08;94904.56;;;23.86;37.01
22389;BME280;11362;48.102;11.620;2023-02-23T07:23:33;94901.81;;;23.86;36.86
22389;BME280;11362;48.102;11.620;2023-02-23T07:25:58;94909.34;;;23.86;37.04
22389;BME280;11362;48.102;11.620;2023-02-23T07:28:24;94913.66;;;23.87;37.04
22389;BME280;11362;48.102;11.620;2023-02-23T07:30:49;94899.03;;;23.86;36.95
22389;BME280;11362;48.102;11.620;2023-02-23T07:33:15;94900.63;;;23.84;37.03
22389;BME280;11362;48.102;11.620;2023-02-23T07:35:40;94921.03;;;23.54;33.45
22389;BME280;11362;48.102;11.620;2023-02-23T07:38:06;94921.28;;;22.95;32.11
22389;BME280;11362;48.102;11.620;2023-02-23T07:40:31;94921.09;;;22.59;31.17
22389;BME280;11362;48.102;11.620;2023-02-23T07:42:56;94921.78;;;22.37;31.43
22389;BME280;11362;48.102;11.620;2023-02-23T07:45:22;94916.53;;;22.16;31.53
22389;BME280;11362;48.102;11.620;2023-02-23T07:47:47;94913.00;;;22.45;31.55
22389;BME280;11362;48.102;11.620;2023-02-23T07:50:12;94912.13;;;22.75;32.24
22389;BME280;11362;48.102;11.620;2023-02-23T07:52:40;94881.00;;;22.90;32.22
22389;BME280;11362;48.102;11.620;2023-02-23T07:55:07;94886.38;;;23.01;32.49
22389;BME280;11362;48.102;11.620;2023-02-23T07:57:33;94885.91;;;23.06;32.56
22389;BME280;11362;48.102;11.620;2023-02-23T07:59:59;94908.28;;;23.15;32.82
22389;BME280;11362;48.102;11.620;2023-02-23T08:02:25;94909.81;;;23.19;32.74
22389;BME280;11362;48.102;11.620;2023-02-23T08:04:50;94906.63;;;23.21;32.78
22389;BME280;11362;48.102;11.620;2023-02-23T08:07:15;94914.09;;;23.24;33.11
22389;BME280;11362;48.102;11.620;2023-02-23T08:09:41;94919.16;;;23.29;33.21
22389;BME280;11362;48.102;11.620;2023-02-23T08:12:06;94911.97;;;23.31;33.57
22389;BME280;11362;48.102;11.620;2023-02-23T08:14:31;94905.56;;;23.34;33.39
22389;BME280;11362;48.102;11.620;2023-02-23T08:16:57;94919.03;;;23.36;33.38
22389;BME280;11362;48.102;11.620;2023-02-23T08:19:22;94913.47;;;23.36;33.58
22389;BME280;11362;48.102;11.620;2023-02-23T08:21:50;94924.13;;;23.37;33.68
22389;BME280;11362;48.102;11.620;2023-02-23T08:24:16;94912.63;;;23.38;33.80
22389;BME280;11362;48.102;11.620;2023-02-23T08:26:41;94911.00;;;23.41;33.79
22389;BME280;11362;48.102;11.620;2023-02-23T08:29:07;94907.81;;;23.42;33.76
22389;BME280;11362;48.102;11.620;2023-02-23T08:31:33;94908.94;;;23.45;33.96
22389;BME280;11362;48.102;11.620;2023-02-23T08:33:58;94909.28;;;23.47;34.03
22389;BME280;11362;48.102;11.620;2023-02-23T08:36:24;94908.88;;;23.48;34.08
22389;BME280;11362;48.102;11.620;2023-02-23T08:38:49;94907.66;;;23.49;34.18
22389;BME280;11362;48.102;11.620;2023-02-23T08:41:15;94913.97;;;23.50;34.17
22389;BME280;11362;48.102;11.620;2023-02-23T08:43:41;94877.53;;;23.51;34.26
22389;BME280;11362;48.102;11.620;2023-02-23T08:46:07;94886.19;;;23.53;34.13
22389;BME280;11362;48.102;11.620;2023-02-23T08:48:32;94887.75;;;23.54;34.44
22389;BME280;11362;48.102;11.620;2023-02-23T08:50:58;94903.16;;;23.55;34.77
22389;BME280;11362;48.102;11.620;2023-02-23T08:53:25;94907.09;;;23.58;34.91
22389;BME280;11362;48.102;11.620;2023-02-23T08:56:02;94912.22;;;23.59;35.14
22389;BME280;11362;48.102;11.620;2023-02-23T08:58:28;94909.03;;;23.61;35.06
22389;BME280;11362;48.102;11.620;2023-02-23T09:00:54;94906.59;;;23.63;35.34
22389;BME280;11362;48.102;11.620;2023-02-23T09:03:20;94909.72;;;23.65;35.43
22389;BME280;11362;48.102;11.620;2023-02-23T09:05:45;94911.22;;;23.69;35.37
22389;BME280;11362;48.102;11.620;2023-02-23T09:08:11;94913.56;;;23.71;35.49
22389;BME280;11362;48.102;11.620;2023-02-23T09:10:37;94906.88;;;23.68;35.43
22389;BME280;11362;48.102;11.620;2023-02-23T09:13:02;94915.94;;;23.72;35.48
22389;BME280;11362;48.102;11.620;2023-02-23T09:15:27;94920.25;;;23.73;35.55
22389;BME280;11362;48.102;11.620;2023-02-23T09:17:53;94914.28;;;23.75;35.60
22389;BME280;11362;48.102;11.620;2023-02-23T09:20:19;94915.06;;;23.75;35.60
22389;BME280;11362;48.102;11.620;2023-02-23T09:22:45;94915.06;;;23.75;35.60
22389;BME280;11362;48.102;11.620;2023-02-23T09:25:10;94914.28;;;23.75;35.40
22389;BME280;11362;48.102;11.620;2023-02-23T09:27:36;94911.88;;;23.77;35.58
22389;BME280;11362;48.102;11.620;2023-02-23T09:30:01;94916.19;;;23.78;35.63
22389;BME280;11362;48.102;11.620;2023-02-23T09:32:26;94920.13;;;23.80;35.80
22389;BME280;11362;48.102;11.620;2023-02-23T09:34:52;94918.91;;;23.81;35.49
22389;BME280;11362;48.102;11.620;2023-02-23T09:37:17;94914.56;;;23.80;35.72
22389;BME280;11362;48.102;11.620;2023-02-23T09:39:42;94923.25;;;23.82;35.57
22389;BME280;11362;48.102;11.620;2023-02-23T09:44:56;94920.03;;;23.84;35.54
22389;BME280;11362;48.102;11.620;2023-02-23T09:47:30;94917.28;;;23.84;35.82
22389;BME280;11362;48.102;11.620;2023-02-23T09:50:03;94929.16;;;23.84;35.88
22389;BME280;11362;48.102;11.620;2023-02-23T09:52:41;94923.19;;;23.86;35.76
22389;BME280;11362;48.102;11.620;2023-02-23T09:55:10;94925.97;;;23.86;35.79
22389;BME280;11362;48.102;11.620;2023-02-23T09:57:39;94919.22;;;23.87;35.81
22389;BME280;11362;48.102;11.620;2023-02-23T10:00:32;94922.78;;;23.87;35.82
22389;BME280;11362;48.102;11.620;2023-02-23T10:03:24;94932.66;;;23.88;35.76
22389;BME280;11362;48.102;11.620;2023-02-23T10:05:58;94932.66;;;23.88;35.78
22389;BME280;11362;48.102;11.620;2023-02-23T10:08:55;94927.47;;;23.90;35.65
22389;BME280;11362;48.102;11.620;2023-02-23T10:16:38;94931.38;;;23.93;35.84
22389;BME280;11362;48.102;11.620;2023-02-23T10:19:20;94928.53;;;23.96;35.82
22389;BME280;11362;48.102;11.620;2023-02-23T10:21:54;94924.19;;;23.95;35.83
22389;BME280;11362;48.102;11.620;2023-02-23T10:24:24;94918.66;;;23.95;35.54
22389;BME280;11362;48.102;11.620;2023-02-23T10:26:59;94924.19;;;23.95;35.86
22389;BME280;11362;48.102;11.620;2023-02-23T10:29:48;94923.31;;;23.98;35.76
22389;BME280;11362;48.102;11.620;2023-02-23T10:32:19;94922.56;;;23.98;35.67
22389;BME280;11362;48.102;11.620;2023-02-23T10:34:51;94927.69;;;23.99;35.83
22389;BME280;11362;48.102;11.620;2023-02-23T10:37:17;94920.22;;;23.96;35.83
22389;BME280;11362;48.102;11.620;2023-02-23T10:39:43;94920.22;;;23.96;35.88
22389;BME280;11362;48.102;11.620;2023-02-23T10:42:14;94925.00;;;23.96;36.02
22389;BME280;11362;48.102;11.620;2023-02-23T10:44:43;94919.44;;;23.96;35.98
22389;BME280;11362;48.102;11.620;2023-02-23T10:47:21;94917.09;;;23.94;35.98
22389;BME280;11362;48.102;11.620;2023-02-23T10:49:53;94913.44;;;23.97;35.96
22389;BME280;11362;48.102;11.620;2023-02-23T10:55:27;94916.59;;;23.99;36.00
22389;BME280;11362;48.102;11.620;2023-02-23T11:00:37;94908.69;;;23.98;36.06
22389;BME280;11362;48.102;11.620;2023-02-23T11:03:16;94917.38;;;24.00;35.99
22389;BME280;11362;48.102;11.620;2023-02-23T11:05:47;94917.69;;;24.02;35.95
22389;BME280;11362;48.102;11.620;2023-02-23T11:08:33;94916.16;;;24.01;35.87
22389;BME280;11362;48.102;11.620;2023-02-23T11:13:42;94911.81;;;24.00;36.03
22389;BME280;11362;48.102;11.620;2023-02-23T11:18:36;94906.34;;;23.96;35.96
22389;BME280;11362;48.102;11.620;2023-02-23T11:21:02;94898.00;;;23.96;36.28
22389;BME280;11362;48.102;11.620;2023-02-23T11:23:36;94894.03;;;23.97;35.99
22389;BME280;11362;48.102;11.620;2023-02-23T11:26:35;94896.44;;;23.95;36.20
22389;BME280;11362;48.102;11.620;2023-02-23T11:29:10;94860.72;;;23.97;36.14
22389;BME280;11362;48.102;11.620;2023-02-23T11:31:36;94862.28;;;23.98;36.30
22389;BME280;11362;48.102;11.620;2023-02-23T11:34:04;94894.81;;;23.98;36.29
22389;BME280;11362;48.102;11.620;2023-02-23T11:36:32;94888.84;;;23.99;36.49
22389;BME280;11362;48.102;11.620;2023-02-23T11:39:05;94892.75;;;24.02;36.53
22389;BME280;11362;48.102;11.620;2023-02-23T11:41:31;94885.22;;;24.02;36.62
22389;BME280;11362;48.102;11.620;2023-02-23T11:43:58;94879.25;;;24.04;36.65
22389;BME280;11362;48.102;11.620;2023-02-23T11:46:25;94880.00;;;24.04;36.76
22389;BME280;11362;48.102;11.620;2023-02-23T11:49:08;94869.28;;;24.06;37.02
22389;BME280;11362;48.102;11.620;2023-02-23T11:51:40;94870.84;;;24.07;37.16
22389;BME280;11362;48.102;11.620;2023-02-23T11:54:20;94860.50;;;24.08;37.10
22389;BME280;11362;48.102;11.620;2023-02-23T11:56:48;94868.41;;;24.09;37.17
22389;BME280;11362;48.102;11.620;2023-02-23T11:59:26;94861.97;;;24.12;37.11
22389;BME280;11362;48.102;11.620;2023-02-23T12:01:53;94863.56;;;24.13;37.27
22389;BME280;11362;48.102;11.620;2023-02-23T12:04:35;94853.66;;;24.12;37.11
22389;BME280;11362;48.102;11.620;2023-02-23T12:07:22;94858.03;;;24.13;36.97
22389;BME280;11362;48.102;11.620;2023-02-23T12:09:57;94855.59;;;24.15;36.98
22389;BME280;11362;48.102;11.620;2023-02-23T12:12:26;94850.81;;;24.16;36.97
22389;BME280;11362;48.102;11.620;2023-02-23T12:14:58;94851.44;;;24.23;36.89
22389;BME280;11362;48.102;11.620;2023-02-23T12:17:37;94848.16;;;24.28;36.45
22389;BME280;11362;48.102;11.620;2023-02-23T12:20:18;94842.69;;;24.25;36.66
22389;BME280;11362;48.102;11.620;2023-02-23T12:22:49;94843.63;;;24.18;36.75
22389;BME280;11362;48.102;11.620;2023-02-23T12:25:34;94848.41;;;24.18;36.78
22389;BME280;11362;48.102;11.620;2023-02-23T12:28:35;94838.44;;;24.20;36.85
22389;BME280;11362;48.102;11.620;2023-02-23T12:31:22;94832.50;;;24.18;36.68
22389;BME280;11362;48.102;11.620;2023-02-23T12:36:49;94838.16;;;24.15;36.81
22389;BME280;11362;48.102;11.620;2023-02-23T12:39:35;94833.38;;;24.15;36.47
22389;BME280;11362;48.102;11.620;2023-02-23T12:42:17;94833.81;;;24.14;36.57
22389;BME280;11362;48.102;11.620;2023-02-23T12:44:51;94828.69;;;24.12;36.47
22389;BME280;11362;48.102;11.620;2023-02-23T12:47:51;94832.69;;;24.11;36.54
22389;BME280;11362;48.102;11.620;2023-02-23T12:50:31;94829.91;;;24.11;36.51
22389;BME280;11362;48.102;11.620;2023-02-23T12:53:06;94831.91;;;24.11;36.55
22389;BME280;11362;48.102;11.620;2023-02-23T12:55:40;94832.34;;;24.09;36.40
22389;BME280;11362;48.102;11.620;2023-02-23T12:58:28;94832.75;;;24.08;36.59
22389;BME280;11362;48.102;11.620;2023-02-23T13:03:45;94817.31;;;24.07;36.44
22389;BME280;11362;48.102;11.620;2023-02-23T13:11:53;94819.34;;;24.06;36.51
22389;BME280;11362;48.102;11.620;2023-02-23T13:14:48;94819.34;;;24.06;36.38
22389;BME280;11362;48.102;11.620;2023-02-23T13:17:34;94817.75;;;24.05;36.67
22389;BME280;11362;48.102;11.620;2023-02-23T13:20:07;94812.19;;;24.05;36.31
22389;BME280;11362;48.102;11.620;2023-02-23T13:22:49;94810.63;;;24.04;36.35
22389;BME280;11362;48.102;11.620;2023-02-23T13:25:47;94814.63;;;24.03;36.35
22389;BME280;11362;48.102;11.620;2023-02-23T13:28:22;94817.81;;;24.02;36.32
22389;BME280;11362;48.102;11.620;2023-02-23T13:30:53;94819.84;;;24.01;36.50
22389;BME280;11362;48.102;11.620;2023-02-23T13:33:28;94821.06;;;24.00;36.29
22389;BME280;11362;48.102;11.620;2023-02-23T13:35:54;94821.06;;;24.00;36.31
22389;BME280;11362;48.102;11.620;2023-02-23T13:38:58;94815.50;;;24.00;36.20
22389;BME280;11362;48.102;11.620;2023-02-23T13:41:37;94813.94;;;23.99;36.36
22389;BME280;11362;48.102;11.620;2023-02-23T13:44:21;94811.59;;;23.98;36.28
22389;BME280;11362;48.102;11.620;2023-02-23T13:46:55;94811.94;;;24.00;36.47
22389;BME280;11362;48.102;11.620;2023-02-23T13:49:39;94812.72;;;24.00;36.35
22389;BME280;11362;48.102;11.620;2023-02-23T13:54:58;94813.94;;;23.99;36.21
22389;BME280;11362;48.102;11.620;2023-02-23T13:57:25;94811.16;;;23.99;36.19
22389;BME280;11362;48.102;11.620;2023-02-23T13:59:51;94813.94;;;23.99;36.37
22389;BME280;11362;48.102;11.620;2023-02-23T14:02:31;94811.94;;;24.00;36.34
22389;BME280;11362;48.102;11.620;2023-02-23T14:05:02;94809.97;;;24.00;36.18
22389;BME280;11362;48.102;11.620;2023-02-23T14:07:29;94811.94;;;24.00;36.27